This is the latest recevied weather packets stored in our database for station/object WMKC. If no packets are shown the sender has not sent any weather packets the latest 10 day(s).
| Time | Temp. | Humidity | Pressure | Rain* | Wind** | Luminosity | Snow |
|---|---|---|---|---|---|---|---|
| 1778224238 | 31.67° C | 62% | 1006 hPa | - | - | - | - |
| 1778220648 | 32.78° C | 55% | 1007 hPa | - | - | - | - |
| 1778217037 | 32.78° C | 55% | 1008 hPa | - | - | - | - |
| 1778213437 | 32.78° C | 59% | 1009 hPa | - | - | - | - |
| 1778209837 | 30.56° C | 66% | 1009 hPa | - | - | - | - |
| 1778206242 | 30.56° C | 66% | 1009 hPa | - | - | - | - |
| 1778202637 | 28.89° C | 74% | 1009 hPa | - | - | - | - |
| 1778199036 | 26.67° C | 83% | 1009 hPa | - | - | - | - |
| 1778195437 | 25.56° C | 88% | 1008 hPa | - | - | - | - |
| 1778191837 | 25.56° C | 88% | 1007 hPa | - | - | - | - |
| 1778188248 | 26.67° C | 83% | 1007 hPa | - | - | - | - |
| 1778184640 | 26.67° C | 83% | 1007 hPa | - | - | - | - |
| 1778181036 | 26.67° C | 83% | 1008 hPa | - | - | - | - |
| 1778177436 | 27.78° C | 74% | 1008 hPa | - | - | - | - |
| 1778173847 | 27.78° C | 78% | 1009 hPa | - | - | - | - |
| 1778170236 | 28.89° C | 74% | 1009 hPa | - | - | - | - |
| 1778166636 | 30° C | 74% | 1009 hPa | - | - | - | - |
| 1778163036 | 30° C | 74% | 1008 hPa | - | - | - | - |
| 1778159436 | 28.89° C | 79% | 1007 hPa | - | - | - | - |
| 1778155847 | 30° C | 74% | 1006 hPa | - | - | - | - |
| 1778152242 | 30.56° C | 70% | 1005 hPa | - | - | - | - |
| 1778148635 | 31.67° C | 62% | 1005 hPa | - | - | - | - |
| 1778145035 | 33.89° C | 56% | 1005 hPa | - | - | - | - |
| 1778141447 | 33.89° C | 56% | 1005 hPa | - | - | - | - |
| 1778137835 | 33.89° C | 52% | 1006 hPa | - | - | - | - |
* Rain since midnight (hover to see other rain measurements)
** Current wind speed in m/s (hover to see current wind gust speed)